Time;durP1;ratioP1;P1;durP2;ratioP2;P2;SDS_P1;SDS_P2;PMS_P1;PMS_P2;Temp;Humidity;BMP_temperature;BMP_pressure;BME280_temperature;BME280_humidity;BME280_pressure;Samples;Min_cycle;Max_cycle;Signal;HPM_P1;HPM_P2
2022/10/15 00:00:47;;;;;;;0.00;0.00;;;;;;;;;;5073332;28;20096;-74
2022/10/15 00:03:13;;;;;;;0.30;0.30;;;;;;;;;;5073086;28;20425;-72
2022/10/15 00:05:40;;;;;;;0.00;0.00;;;;;;;;;;5085600;28;20112;-73
2022/10/15 00:08:07;;;;;;;0.60;0.60;;;;;;;;;;5094876;28;20082;-73
2022/10/15 00:10:33;;;;;;;0.00;0.00;;;;;;;;;;5092820;28;20055;-74
2022/10/15 00:13:00;;;;;;;2.30;2.20;;;;;;;;;;5076323;28;20394;-73
2022/10/15 00:15:26;;;;;;;0.00;0.00;;;;;;;;;;5066875;28;20042;-74
2022/10/15 00:17:52;;;;;;;0.00;0.00;;;;;;;;;;5074061;28;20036;-73
2022/10/15 00:20:19;;;;;;;0.00;0.00;;;;;;;;;;5074048;28;20017;-74
2022/10/15 00:22:45;;;;;;;0.00;0.00;;;;;;;;;;5073920;28;20044;-73
2022/10/15 00:25:12;;;;;;;1.70;1.65;;;;;;;;;;5073976;28;20059;-74
2022/10/15 00:27:38;;;;;;;0.00;0.00;;;;;;;;;;5073924;28;20023;-74
2022/10/15 00:30:06;;;;;;;0.00;0.00;;;;;;;;;;5072552;28;20032;-74
2022/10/15 00:32:32;;;;;;;0.00;0.00;;;;;;;;;;5072449;28;20020;-74
2022/10/15 00:34:58;;;;;;;0.00;0.00;;;;;;;;;;5073830;28;20020;-74
2022/10/15 00:37:25;;;;;;;0.00;0.00;;;;;;;;;;5073646;28;20034;-74
2022/10/15 00:39:51;;;;;;;0.00;0.00;;;;;;;;;;5073687;28;20032;-73
2022/10/15 00:42:17;;;;;;;0.00;0.00;;;;;;;;;;5104951;27;20043;-73
2022/10/15 00:44:47;;;;;;;0.00;0.00;;;;;;;;;;5122880;27;20397;-74
2022/10/15 00:47:13;;;;;;;0.00;0.00;;;;;;;;;;5093855;28;20077;-74
2022/10/15 00:49:42;;;;;;;0.00;0.00;;;;;;;;;;5093591;28;20024;-74
2022/10/15 00:52:13;;;;;;;0.00;0.00;;;;;;;;;;5075470;28;20020;-74
2022/10/15 00:54:47;;;;;;;0.00;0.00;;;;;;;;;;5075190;28;20115;-74
2022/10/15 00:57:14;;;;;;;0.00;0.00;;;;;;;;;;5093456;28;20364;-74
2022/10/15 00:59:47;;;;;;;0.93;0.93;;;;;;;;;;5075654;28;20024;-74
2022/10/15 01:02:13;;;;;;;0.00;0.00;;;;;;;;;;5092814;28;20034;-73
2022/10/15 01:04:41;;;;;;;0.00;0.00;;;;;;;;;;5102380;28;20493;-73
2022/10/15 01:07:07;;;;;;;0.00;0.00;;;;;;;;;;5101361;28;20024;-74
2022/10/15 01:09:34;;;;;;;0.00;0.00;;;;;;;;;;5101895;28;20028;-74
2022/10/15 01:12:00;;;;;;;0.00;0.00;;;;;;;;;;5094798;28;20036;-75
2022/10/15 01:14:32;;;;;;;1.55;1.45;;;;;;;;;;5094146;28;20024;-74
2022/10/15 01:17:12;;;;;;;0.00;0.00;;;;;;;;;;5096358;28;20027;-74
2022/10/15 01:19:57;;;;;;;0.00;0.00;;;;;;;;;;5104916;28;20059;-74
2022/10/15 01:22:42;;;;;;;2.83;2.63;;;;;;;;;;5138764;27;20012;-75
2022/10/15 01:25:15;;;;;;;0.00;0.00;;;;;;;;;;5127415;28;20078;-75
2022/10/15 01:27:41;;;;;;;1.55;1.45;;;;;;;;;;5096374;28;20019;-74
2022/10/15 01:30:18;;;;;;;0.00;0.00;;;;;;;;;;5113833;28;20020;-74
2022/10/15 01:32:53;;;;;;;0.00;0.00;;;;;;;;;;5087673;28;20039;-73
2022/10/15 01:35:29;;;;;;;0.00;0.00;;;;;;;;;;5093050;28;20035;-74
2022/10/15 01:38:15;;;;;;;0.00;0.00;;;;;;;;;;5078423;28;20024;-72
2022/10/15 01:41:02;;;;;;;1.08;1.08;;;;;;;;;;5082913;28;20025;-73
2022/10/15 01:43:46;;;;;;;0.00;0.00;;;;;;;;;;5105301;28;20047;-73
2022/10/15 01:46:16;;;;;;;0.10;0.10;;;;;;;;;;5104387;28;20074;-74
2022/10/15 01:48:42;;;;;;;0.00;0.00;;;;;;;;;;5098451;28;20032;-74
2022/10/15 01:51:10;;;;;;;0.00;0.00;;;;;;;;;;5107845;28;20038;-74
2022/10/15 01:53:37;;;;;;;0.00;0.00;;;;;;;;;;5106569;28;20046;-74
2022/10/15 01:56:07;;;;;;;0.00;0.00;;;;;;;;;;5103719;28;20035;-75
2022/10/15 01:58:35;;;;;;;0.00;0.00;;;;;;;;;;5084821;28;20024;-75
2022/10/15 02:01:01;;;;;;;0.00;0.00;;;;;;;;;;5113641;28;20022;-74
2022/10/15 02:03:28;;;;;;;0.00;0.00;;;;;;;;;;5113237;28;20085;-74
2022/10/15 02:05:59;;;;;;;0.00;0.00;;;;;;;;;;5094908;28;20058;-74
2022/10/15 02:08:30;;;;;;;0.00;0.00;;;;;;;;;;5094773;28;20028;-74
2022/10/15 02:11:17;;;;;;;0.00;0.00;;;;;;;;;;5092351;28;20086;-74
2022/10/15 02:14:02;;;;;;;0.00;0.00;;;;;;;;;;5092320;28;20039;-73
2022/10/15 02:16:33;;;;;;;0.00;0.00;;;;;;;;;;5112644;28;20050;-73
2022/10/15 02:19:02;;;;;;;0.00;0.00;;;;;;;;;;5112860;28;20027;-74
2022/10/15 02:21:50;;;;;;;0.00;0.00;;;;;;;;;;5112817;28;20103;-74
2022/10/15 02:24:22;;;;;;;0.10;0.10;;;;;;;;;;5113082;28;20447;-74
2022/10/15 02:26:49;;;;;;;0.00;0.00;;;;;;;;;;5099873;28;20020;-74
2022/10/15 02:29:18;;;;;;;0.00;0.00;;;;;;;;;;5087006;28;20386;-74
2022/10/15 02:31:46;;;;;;;0.00;0.00;;;;;;;;;;5104489;28;20082;-75
2022/10/15 02:34:16;;;;;;;0.00;0.00;;;;;;;;;;5093987;28;20020;-75
2022/10/15 02:36:43;;;;;;;0.00;0.00;;;;;;;;;;5104329;28;20031;-74
2022/10/15 02:39:12;;;;;;;0.00;0.00;;;;;;;;;;5106190;28;20032;-74
2022/10/15 02:41:38;;;;;;;0.00;0.00;;;;;;;;;;5080714;28;20036;-74
2022/10/15 02:44:05;;;;;;;0.00;0.00;;;;;;;;;;5098712;28;20028;-74
2022/10/15 02:46:32;;;;;;;0.00;0.00;;;;;;;;;;5095317;28;20023;-75
2022/10/15 02:48:58;;;;;;;0.00;0.00;;;;;;;;;;5112712;28;20047;-74
2022/10/15 02:51:24;;;;;;;0.00;0.00;;;;;;;;;;5093963;28;20032;-74
2022/10/15 02:53:51;;;;;;;0.35;0.35;;;;;;;;;;5093037;28;20028;-74
2022/10/15 02:56:17;;;;;;;0.00;0.00;;;;;;;;;;5088549;28;20024;-74
2022/10/15 02:58:43;;;;;;;0.00;0.00;;;;;;;;;;5103621;28;20028;-74
2022/10/15 03:01:10;;;;;;;0.00;0.00;;;;;;;;;;5100640;28;20090;-74
2022/10/15 03:03:36;;;;;;;0.00;0.00;;;;;;;;;;5110870;28;20027;-73
2022/10/15 03:06:03;;;;;;;0.00;0.00;;;;;;;;;;5108105;27;20026;-74
2022/10/15 03:08:29;;;;;;;0.00;0.00;;;;;;;;;;5125953;27;20436;-74
2022/10/15 03:10:55;;;;;;;0.00;0.00;;;;;;;;;;5101520;28;20111;-75
2022/10/15 03:13:21;;;;;;;0.00;0.00;;;;;;;;;;5110202;28;20048;-73
2022/10/15 03:15:48;;;;;;;0.00;0.00;;;;;;;;;;5115878;27;20066;-74
2022/10/15 03:18:14;;;;;;;0.00;0.00;;;;;;;;;;5114025;28;20469;-73
2022/10/15 03:20:40;;;;;;;0.00;0.00;;;;;;;;;;5114651;28;20032;-73
2022/10/15 03:23:07;;;;;;;0.00;0.00;;;;;;;;;;5111943;28;20019;-73
2022/10/15 03:25:33;;;;;;;0.00;0.00;;;;;;;;;;5097519;28;20114;-72
2022/10/15 03:27:59;;;;;;;0.00;0.00;;;;;;;;;;5092807;28;20114;-73
2022/10/15 03:30:26;;;;;;;0.00;0.00;;;;;;;;;;5095381;28;20024;-72
2022/10/15 03:32:52;;;;;;;0.00;0.00;;;;;;;;;;5079466;28;20028;-72
2022/10/15 03:35:18;;;;;;;0.05;0.05;;;;;;;;;;5107531;28;20477;-72
2022/10/15 03:37:45;;;;;;;0.00;0.00;;;;;;;;;;5104023;27;20039;-73
2022/10/15 03:40:11;;;;;;;0.00;0.00;;;;;;;;;;5100395;28;20019;-75
2022/10/15 03:42:38;;;;;;;0.43;0.40;;;;;;;;;;5112235;28;20130;-73
2022/10/15 03:45:04;;;;;;;0.68;0.68;;;;;;;;;;5112899;28;20035;-74
2022/10/15 03:47:30;;;;;;;0.00;0.00;;;;;;;;;;5092141;28;20655;-72
2022/10/15 03:49:57;;;;;;;0.00;0.00;;;;;;;;;;5101223;28;20051;-73
2022/10/15 03:52:23;;;;;;;0.00;0.00;;;;;;;;;;5086850;28;20073;-72
2022/10/15 03:54:49;;;;;;;0.00;0.00;;;;;;;;;;5099166;28;20432;-75
2022/10/15 03:57:16;;;;;;;0.05;0.05;;;;;;;;;;5084246;28;20032;-74
2022/10/15 03:59:42;;;;;;;1.15;0.98;;;;;;;;;;5105522;28;20020;-74
2022/10/15 04:02:08;;;;;;;0.00;0.00;;;;;;;;;;5104613;28;20205;-73
2022/10/15 04:04:35;;;;;;;0.00;0.00;;;;;;;;;;5097039;28;20463;-73
2022/10/15 04:07:01;;;;;;;0.00;0.00;;;;;;;;;;5101074;28;20035;-73
2022/10/15 04:09:27;;;;;;;0.00;0.00;;;;;;;;;;5088747;28;20015;-73
2022/10/15 04:11:54;;;;;;;4.85;4.65;;;;;;;;;;5096808;27;20023;-74
2022/10/15 04:14:20;;;;;;;0.00;0.00;;;;;;;;;;5104320;28;20048;-73
2022/10/15 04:16:46;;;;;;;0.00;0.00;;;;;;;;;;5088550;28;20119;-73
2022/10/15 04:19:13;;;;;;;0.00;0.00;;;;;;;;;;5112640;28;20106;-72
2022/10/15 04:21:39;;;;;;;0.00;0.00;;;;;;;;;;5105293;28;20020;-72
2022/10/15 04:24:05;;;;;;;35.20;2.58;;;;;;;;;;5094269;28;20072;-73
2022/10/15 04:26:32;;;;;;;0.00;0.00;;;;;;;;;;5090990;28;21086;-73
2022/10/15 04:28:58;;;;;;;4.05;2.28;;;;;;;;;;5104999;27;20427;-72
2022/10/15 04:31:24;;;;;;;6.50;4.50;;;;;;;;;;5107565;28;20024;-73
2022/10/15 04:33:51;;;;;;;0.47;0.47;;;;;;;;;;5076293;28;20032;-73
2022/10/15 04:36:17;;;;;;;3.83;2.28;;;;;;;;;;5086573;28;20084;-73
2022/10/15 04:38:43;;;;;;;0.10;0.10;;;;;;;;;;5090079;28;20031;-73
2022/10/15 04:41:11;;;;;;;1.38;1.23;;;;;;;;;;5100316;28;20054;-73
2022/10/15 04:43:38;;;;;;;0.10;0.10;;;;;;;;;;5094041;28;20106;-73
2022/10/15 04:46:05;;;;;;;0.00;0.00;;;;;;;;;;5098320;28;20016;-74
2022/10/15 04:48:33;;;;;;;0.00;0.00;;;;;;;;;;5103292;28;20034;-73
2022/10/15 04:51:07;;;;;;;0.50;0.50;;;;;;;;;;5114150;28;20072;-73
2022/10/15 04:53:33;;;;;;;8.35;6.65;;;;;;;;;;5105457;27;20089;-72
2022/10/15 04:56:01;;;;;;;1.33;0.77;;;;;;;;;;5118858;27;20027;-72
2022/10/15 04:58:28;;;;;;;0.00;0.00;;;;;;;;;;5110394;27;20045;-71
2022/10/15 05:00:55;;;;;;;0.30;0.30;;;;;;;;;;5115099;27;20029;-72
2022/10/15 05:03:21;;;;;;;0.00;0.00;;;;;;;;;;5097544;28;20056;-73
2022/10/15 05:05:47;;;;;;;0.40;0.35;;;;;;;;;;5100385;27;20525;-72
2022/10/15 05:08:13;;;;;;;1.70;1.55;;;;;;;;;;5101494;28;20035;-72
2022/10/15 05:10:40;;;;;;;1.42;1.13;;;;;;;;;;5119803;27;20392;-71
2022/10/15 05:13:06;;;;;;;0.10;0.10;;;;;;;;;;5100901;27;20024;-73
2022/10/15 05:15:32;;;;;;;0.00;0.00;;;;;;;;;;5104459;27;20106;-72
2022/10/15 05:17:59;;;;;;;0.00;0.00;;;;;;;;;;5091217;28;20110;-72
2022/10/15 05:20:25;;;;;;;0.00;0.00;;;;;;;;;;5093332;28;20612;-72
2022/10/15 05:22:51;;;;;;;4.28;3.90;;;;;;;;;;5095386;28;20028;-72
2022/10/15 05:25:18;;;;;;;0.00;0.00;;;;;;;;;;5109753;27;20099;-71
2022/10/15 05:27:44;;;;;;;0.57;0.57;;;;;;;;;;5093635;28;20055;-72
2022/10/15 05:30:10;;;;;;;0.47;0.47;;;;;;;;;;5102717;28;20474;-72
2022/10/15 05:32:37;;;;;;;0.10;0.10;;;;;;;;;;5094984;28;20028;-73
2022/10/15 05:35:03;;;;;;;0.25;0.10;;;;;;;;;;5097698;28;20023;-71
2022/10/15 05:37:30;;;;;;;2.45;2.25;;;;;;;;;;5096935;28;20028;-72
2022/10/15 05:39:56;;;;;;;1.40;1.40;;;;;;;;;;5106727;28;20099;-74
2022/10/15 05:42:22;;;;;;;0.00;0.00;;;;;;;;;;5093782;28;20042;-74
2022/10/15 05:44:49;;;;;;;0.00;0.00;;;;;;;;;;5077382;28;20024;-74
2022/10/15 05:47:15;;;;;;;0.00;0.00;;;;;;;;;;5106310;28;20054;-74
2022/10/15 05:49:41;;;;;;;0.25;0.25;;;;;;;;;;5110939;27;20023;-74
2022/10/15 05:52:08;;;;;;;0.50;0.50;;;;;;;;;;5101147;28;20020;-74
2022/10/15 05:54:34;;;;;;;0.00;0.00;;;;;;;;;;5098980;28;20020;-74
2022/10/15 05:57:00;;;;;;;0.70;0.70;;;;;;;;;;5101156;28;20052;-75
2022/10/15 05:59:27;;;;;;;0.00;0.00;;;;;;;;;;5106507;28;20382;-75
2022/10/15 06:01:53;;;;;;;0.00;0.00;;;;;;;;;;5107656;28;20020;-76
2022/10/15 06:04:19;;;;;;;0.00;0.00;;;;;;;;;;5099715;28;20027;-74
2022/10/15 06:06:46;;;;;;;0.15;0.15;;;;;;;;;;5095765;28;20020;-74
2022/10/15 06:09:13;;;;;;;0.00;0.00;;;;;;;;;;5093835;28;20032;-74
2022/10/15 06:11:40;;;;;;;0.70;0.30;;;;;;;;;;5109023;28;20422;-73
2022/10/15 06:14:06;;;;;;;0.22;0.22;;;;;;;;;;5079607;28;20028;-75
2022/10/15 06:16:32;;;;;;;3.78;3.30;;;;;;;;;;5100745;28;20077;-75
2022/10/15 06:18:59;;;;;;;0.30;0.25;;;;;;;;;;5110847;28;20027;-73
2022/10/15 06:21:25;;;;;;;21.73;9.32;;;;;;;;;;5090735;28;20024;-74
2022/10/15 06:23:51;;;;;;;0.00;0.00;;;;;;;;;;5082056;28;20474;-74
2022/10/15 06:26:18;;;;;;;0.00;0.00;;;;;;;;;;5085201;28;20032;-75
2022/10/15 06:28:47;;;;;;;0.00;0.00;;;;;;;;;;5076199;28;20028;-74
2022/10/15 06:31:13;;;;;;;0.15;0.15;;;;;;;;;;5084549;28;20024;-74
2022/10/15 06:33:39;;;;;;;0.05;0.05;;;;;;;;;;5114874;28;20032;-76
2022/10/15 06:36:07;;;;;;;0.10;0.10;;;;;;;;;;5109436;28;20024;-75
2022/10/15 06:38:34;;;;;;;0.35;0.35;;;;;;;;;;5104627;27;20031;-75
2022/10/15 06:41:04;;;;;;;0.10;0.10;;;;;;;;;;5086436;28;20028;-75
2022/10/15 06:43:30;;;;;;;0.00;0.00;;;;;;;;;;5083303;28;20023;-74
2022/10/15 06:45:58;;;;;;;0.00;0.00;;;;;;;;;;5086727;28;20026;-76
2022/10/15 06:48:24;;;;;;;0.25;0.25;;;;;;;;;;5105226;27;20364;-74
2022/10/15 06:50:51;;;;;;;0.00;0.00;;;;;;;;;;5100841;28;20035;-76
2022/10/15 06:53:17;;;;;;;1.13;0.75;;;;;;;;;;5111315;28;20051;-74
2022/10/15 06:55:43;;;;;;;0.90;0.50;;;;;;;;;;5087416;28;20030;-75
2022/10/15 06:58:10;;;;;;;0.00;0.00;;;;;;;;;;5084660;28;20028;-74
2022/10/15 07:00:36;;;;;;;0.88;0.57;;;;;;;;;;5096034;28;20027;-73
2022/10/15 07:03:06;;;;;;;1.77;1.45;;;;;;;;;;5094884;28;20595;-74
2022/10/15 07:05:33;;;;;;;1.73;1.65;;;;;;;;;;5105971;28;20083;-73
2022/10/15 07:07:59;;;;;;;0.00;0.00;;;;;;;;;;5108882;28;20032;-76
2022/10/15 07:10:26;;;;;;;0.00;0.00;;;;;;;;;;5091002;28;20038;-75
2022/10/15 07:12:53;;;;;;;0.00;0.00;;;;;;;;;;5099901;27;20024;-74
2022/10/15 07:15:20;;;;;;;0.73;0.73;;;;;;;;;;5111829;27;20032;-74
2022/10/15 07:17:48;;;;;;;0.95;0.55;;;;;;;;;;5090164;28;20063;-74
2022/10/15 07:20:14;;;;;;;0.43;0.17;;;;;;;;;;5087826;28;20483;-74
2022/10/15 07:22:41;;;;;;;24.75;19.65;;;;;;;;;;5110359;28;20024;-75
2022/10/15 07:25:08;;;;;;;0.00;0.00;;;;;;;;;;5100311;28;20384;-75
2022/10/15 07:27:36;;;;;;;0.00;0.00;;;;;;;;;;5094447;28;20051;-74
2022/10/15 07:30:02;;;;;;;0.00;0.00;;;;;;;;;;5114650;28;20023;-75
2022/10/15 07:32:29;;;;;;;0.00;0.00;;;;;;;;;;5088894;28;20058;-75
2022/10/15 07:34:55;;;;;;;0.10;0.10;;;;;;;;;;5096492;28;20020;-75
2022/10/15 07:37:21;;;;;;;0.35;0.35;;;;;;;;;;5110485;28;20043;-76
2022/10/15 07:39:48;;;;;;;0.00;0.00;;;;;;;;;;5102726;28;20015;-77
2022/10/15 07:42:14;;;;;;;0.00;0.00;;;;;;;;;;5117566;28;20051;-74
2022/10/15 07:44:40;;;;;;;0.47;0.47;;;;;;;;;;5098342;28;20026;-75
2022/10/15 07:47:07;;;;;;;0.20;0.20;;;;;;;;;;5088415;28;20383;-75
2022/10/15 07:49:33;;;;;;;0.75;0.75;;;;;;;;;;5132597;27;20027;-74
2022/10/15 07:52:00;;;;;;;0.00;0.00;;;;;;;;;;5138852;27;20032;-75
2022/10/15 07:54:26;;;;;;;0.25;0.25;;;;;;;;;;5105647;27;20046;-76
2022/10/15 07:56:52;;;;;;;0.00;0.00;;;;;;;;;;5104957;28;20085;-76
2022/10/15 07:59:18;;;;;;;0.00;0.00;;;;;;;;;;5114089;28;20111;-76
2022/10/15 08:01:45;;;;;;;1.13;1.13;;;;;;;;;;5082850;28;20047;-76
2022/10/15 08:04:11;;;;;;;0.00;0.00;;;;;;;;;;5109287;27;20028;-76
2022/10/15 08:06:37;;;;;;;0.77;0.70;;;;;;;;;;5076756;28;20106;-76
2022/10/15 08:09:04;;;;;;;0.17;0.17;;;;;;;;;;5085032;28;20052;-76
2022/10/15 08:11:31;;;;;;;0.00;0.00;;;;;;;;;;5083635;28;20047;-77
2022/10/15 08:13:57;;;;;;;0.00;0.00;;;;;;;;;;5085708;28;20039;-75
2022/10/15 08:16:23;;;;;;;0.10;0.10;;;;;;;;;;5087905;28;20033;-75
2022/10/15 08:18:50;;;;;;;0.32;0.32;;;;;;;;;;5101799;28;20478;-76
2022/10/15 08:21:16;;;;;;;0.00;0.00;;;;;;;;;;5095332;28;20044;-75
2022/10/15 08:23:42;;;;;;;0.00;0.00;;;;;;;;;;5093814;28;20030;-75
2022/10/15 08:26:09;;;;;;;0.00;0.00;;;;;;;;;;5107452;27;20032;-75
2022/10/15 08:28:35;;;;;;;0.82;0.82;;;;;;;;;;5100900;27;20076;-75
2022/10/15 08:31:02;;;;;;;0.05;0.05;;;;;;;;;;5083761;27;20440;-76
2022/10/15 08:33:28;;;;;;;0.38;0.38;;;;;;;;;;5086623;28;20027;-75
2022/10/15 08:35:55;;;;;;;0.00;0.00;;;;;;;;;;5102162;27;20027;-76
2022/10/15 08:38:21;;;;;;;0.43;0.43;;;;;;;;;;5105105;27;20102;-75
2022/10/15 08:40:53;;;;;;;0.00;0.00;;;;;;;;;;5106101;27;20035;-75
2022/10/15 08:43:22;;;;;;;1.35;0.30;;;;;;;;;;5089120;27;20374;-76
2022/10/15 08:45:49;;;;;;;0.00;0.00;;;;;;;;;;5100521;28;20519;-76
2022/10/15 08:48:20;;;;;;;0.35;0.35;;;;;;;;;;5095647;28;20024;-76
2022/10/15 08:51:13;;;;;;;0.00;0.00;;;;;;;;;;5090339;28;20038;-75
2022/10/15 08:53:43;;;;;;;0.00;0.00;;;;;;;;;;5106400;28;20036;-75
2022/10/15 08:56:42;;;;;;;0.00;0.00;;;;;;;;;;5109480;28;20030;-75
2022/10/15 08:59:31;;;;;;;0.00;0.00;;;;;;;;;;5068907;28;20056;-76
2022/10/15 09:02:19;;;;;;;0.00;0.00;;;;;;;;;;5104694;28;20103;-75
2022/10/15 09:05:18;;;;;;;4.60;4.38;;;;;;;;;;5102713;28;20070;-74
2022/10/15 09:07:49;;;;;;;0.00;0.00;;;;;;;;;;5104971;27;20016;-75
2022/10/15 09:10:34;;;;;;;0.00;0.00;;;;;;;;;;5088739;28;20016;-75
2022/10/15 09:13:07;;;;;;;0.57;0.57;;;;;;;;;;5111215;27;20024;-74
2022/10/15 09:15:37;;;;;;;0.45;0.45;;;;;;;;;;5106874;28;20103;-75
2022/10/15 09:18:03;;;;;;;0.00;0.00;;;;;;;;;;5088461;28;20386;-75
2022/10/15 09:20:31;;;;;;;0.00;0.00;;;;;;;;;;5090377;28;20462;-75
2022/10/15 09:22:58;;;;;;;0.00;0.00;;;;;;;;;;5111315;28;20471;-74
2022/10/15 09:25:24;;;;;;;0.00;0.00;;;;;;;;;;5093157;28;20597;-74
2022/10/15 09:27:51;;;;;;;0.00;0.00;;;;;;;;;;5113071;28;20019;-71
2022/10/15 09:30:33;;;;;;;0.00;0.00;;;;;;;;;;5086519;28;20524;-71
2022/10/15 09:33:07;;;;;;;0.08;0.08;;;;;;;;;;5086921;27;20070;-71
2022/10/15 09:35:42;;;;;;;0.38;0.20;;;;;;;;;;5090925;28;20035;-70
2022/10/15 09:38:21;;;;;;;0.30;0.20;;;;;;;;;;5093534;28;20442;-72
2022/10/15 09:40:50;;;;;;;0.65;0.63;;;;;;;;;;5119224;27;20019;-71
2022/10/15 09:43:26;;;;;;;0.30;0.30;;;;;;;;;;5133537;27;20039;-72
2022/10/15 09:45:52;;;;;;;0.00;0.00;;;;;;;;;;5104594;28;20028;-71
2022/10/15 09:48:19;;;;;;;0.00;0.00;;;;;;;;;;5108056;27;20024;-71
2022/10/15 09:50:55;;;;;;;0.00;0.00;;;;;;;;;;5075646;28;20028;-71
2022/10/15 09:53:40;;;;;;;1.08;1.00;;;;;;;;;;5099780;27;20020;-71
2022/10/15 09:56:09;;;;;;;77.43;71.60;;;;;;;;;;5105481;28;20115;-71
2022/10/15 09:58:43;;;;;;;3.65;1.02;;;;;;;;;;5087774;28;20032;-72
2022/10/15 10:01:20;;;;;;;0.00;0.00;;;;;;;;;;5090581;28;20020;-71
2022/10/15 10:03:50;;;;;;;0.10;0.10;;;;;;;;;;5091616;27;20031;-72
2022/10/15 10:06:16;;;;;;;0.00;0.00;;;;;;;;;;5090975;28;20114;-72
2022/10/15 10:08:46;;;;;;;0.00;0.00;;;;;;;;;;5123799;27;20070;-72
2022/10/15 10:11:12;;;;;;;0.00;0.00;;;;;;;;;;5108609;27;20084;-72
2022/10/15 10:13:49;;;;;;;0.10;0.10;;;;;;;;;;5115031;27;20477;-73
2022/10/15 10:16:17;;;;;;;0.00;0.00;;;;;;;;;;5110949;27;20028;-72
2022/10/15 10:18:49;;;;;;;0.00;0.00;;;;;;;;;;5091993;28;20029;-73
2022/10/15 10:21:25;;;;;;;0.17;0.13;;;;;;;;;;5106834;28;20593;-72
2022/10/15 10:23:51;;;;;;;0.00;0.00;;;;;;;;;;5094771;28;20126;-74
2022/10/15 10:26:18;;;;;;;0.70;0.70;;;;;;;;;;5085474;28;20024;-75
2022/10/15 10:28:49;;;;;;;1.95;1.65;;;;;;;;;;5091361;28;20031;-75
2022/10/15 10:31:16;;;;;;;0.00;0.00;;;;;;;;;;5101589;28;20034;-73
2022/10/15 10:33:47;;;;;;;0.00;0.00;;;;;;;;;;5107699;27;20098;-74
2022/10/15 10:36:21;;;;;;;0.00;0.00;;;;;;;;;;5108846;27;20425;-73
2022/10/15 10:39:06;;;;;;;3.28;2.90;;;;;;;;;;5113473;28;20123;-74
2022/10/15 10:41:50;;;;;;;0.00;0.00;;;;;;;;;;5112325;28;20431;-74
2022/10/15 10:44:22;;;;;;;0.00;0.00;;;;;;;;;;5098346;28;20020;-75
2022/10/15 10:47:06;;;;;;;0.50;0.50;;;;;;;;;;5112110;27;20111;-73
2022/10/15 10:49:34;;;;;;;0.00;0.00;;;;;;;;;;5094774;28;20206;-73
2022/10/15 10:52:01;;;;;;;0.00;0.00;;;;;;;;;;5072407;28;20138;-74
2022/10/15 10:54:29;;;;;;;0.73;0.73;;;;;;;;;;5095418;28;20023;-72
2022/10/15 10:56:56;;;;;;;0.00;0.00;;;;;;;;;;5098969;28;20019;-73
2022/10/15 10:59:32;;;;;;;0.00;0.00;;;;;;;;;;5113444;28;21357;-73
2022/10/15 11:01:58;;;;;;;0.00;0.00;;;;;;;;;;5091566;28;20019;-73
2022/10/15 11:04:33;;;;;;;0.00;0.00;;;;;;;;;;5085870;28;20592;-72
2022/10/15 11:07:05;;;;;;;0.22;0.22;;;;;;;;;;5103834;28;20058;-73
2022/10/15 11:09:38;;;;;;;0.00;0.00;;;;;;;;;;5124502;27;20035;-74
2022/10/15 11:12:22;;;;;;;0.00;0.00;;;;;;;;;;5102271;28;20027;-74
2022/10/15 11:14:54;;;;;;;0.65;0.65;;;;;;;;;;5107511;28;20070;-73
2022/10/15 11:17:26;;;;;;;0.00;0.00;;;;;;;;;;5112884;28;20427;-72
2022/10/15 11:20:13;;;;;;;0.00;0.00;;;;;;;;;;5107842;28;20027;-73
2022/10/15 11:22:39;;;;;;;0.00;0.00;;;;;;;;;;5052706;28;20043;-73
2022/10/15 11:25:17;;;;;;;0.00;0.00;;;;;;;;;;5106734;28;20127;-73
2022/10/15 11:28:02;;;;;;;0.47;0.47;;;;;;;;;;5113833;28;20030;-73
2022/10/15 11:30:35;;;;;;;0.00;0.00;;;;;;;;;;5077357;28;20015;-73
2022/10/15 11:33:27;;;;;;;0.00;0.00;;;;;;;;;;5106991;27;20117;-73
2022/10/15 11:35:53;;;;;;;0.08;0.08;;;;;;;;;;5070320;27;20513;-72
2022/10/15 11:38:29;;;;;;;0.00;0.00;;;;;;;;;;5113301;27;20122;-72
2022/10/15 11:40:55;;;;;;;0.50;0.40;;;;;;;;;;5104524;28;20019;-73
2022/10/15 11:43:40;;;;;;;0.32;0.32;;;;;;;;;;5092163;28;20063;-73
2022/10/15 11:46:12;;;;;;;0.00;0.00;;;;;;;;;;5063791;28;20118;-72
2022/10/15 11:48:50;;;;;;;0.00;0.00;;;;;;;;;;5069968;28;20391;-72
2022/10/15 11:51:49;;;;;;;0.00;0.00;;;;;;;;;;5091521;28;20032;-73
2022/10/15 11:54:15;;;;;;;0.00;0.00;;;;;;;;;;5029096;28;20032;-74
2022/10/15 11:56:50;;;;;;;0.00;0.00;;;;;;;;;;5058571;28;20505;-74
2022/10/15 11:59:16;;;;;;;0.00;0.00;;;;;;;;;;5071265;28;20036;-74
2022/10/15 12:02:03;;;;;;;0.10;0.10;;;;;;;;;;5090612;28;20174;-74
2022/10/15 12:04:44;;;;;;;0.00;0.00;;;;;;;;;;5085162;28;20020;-74
2022/10/15 12:07:22;;;;;;;0.00;0.00;;;;;;;;;;5068170;28;20020;-73
2022/10/15 12:09:51;;;;;;;0.10;0.10;;;;;;;;;;5065708;28;20408;-72
2022/10/15 12:12:23;;;;;;;0.00;0.00;;;;;;;;;;5080826;28;20020;-73
2022/10/15 12:15:10;;;;;;;0.00;0.00;;;;;;;;;;5096627;28;20029;-71
2022/10/15 12:17:47;;;;;;;0.00;0.00;;;;;;;;;;5081504;28;20032;-75
2022/10/15 12:20:15;;;;;;;0.00;0.00;;;;;;;;;;5074389;28;20446;-75
2022/10/15 12:22:49;;;;;;;2.10;2.00;;;;;;;;;;5084832;28;20110;-74
2022/10/15 12:25:33;;;;;;;0.00;0.00;;;;;;;;;;5061889;28;20111;-74
2022/10/15 12:28:09;;;;;;;0.00;0.00;;;;;;;;;;5059824;28;20032;-74
2022/10/15 12:30:36;;;;;;;0.00;0.00;;;;;;;;;;5067814;28;20032;-74
2022/10/15 12:33:03;;;;;;;0.13;0.13;;;;;;;;;;5084712;28;20029;-71
2022/10/15 12:35:39;;;;;;;0.00;0.00;;;;;;;;;;5055935;28;20059;-71
2022/10/15 12:38:32;;;;;;;0.00;0.00;;;;;;;;;;5075140;28;20024;-73
2022/10/15 12:41:00;;;;;;;0.00;0.00;;;;;;;;;;5061907;28;20033;-72
2022/10/15 12:43:26;;;;;;;1.55;1.45;;;;;;;;;;5075192;28;20054;-73
2022/10/15 12:45:57;;;;;;;1.17;1.17;;;;;;;;;;5099822;28;20351;-74
2022/10/15 12:48:43;;;;;;;0.00;0.00;;;;;;;;;;5094056;28;20027;-73
2022/10/15 12:51:21;;;;;;;0.00;0.00;;;;;;;;;;5094339;28;20393;-74
2022/10/15 12:53:48;;;;;;;0.00;0.00;;;;;;;;;;5114240;28;20035;-74
2022/10/15 12:56:15;;;;;;;0.00;0.00;;;;;;;;;;5095847;28;20050;-73
2022/10/15 12:58:45;;;;;;;0.00;0.00;;;;;;;;;;5099931;27;20493;-73
2022/10/15 13:01:15;;;;;;;0.20;0.20;;;;;;;;;;5123576;27;20031;-73
2022/10/15 13:03:43;;;;;;;0.00;0.00;;;;;;;;;;5102667;27;20033;-73
2022/10/15 13:06:13;;;;;;;0.10;0.10;;;;;;;;;;5097859;27;20081;-74
2022/10/15 13:08:43;;;;;;;0.00;0.00;;;;;;;;;;5089313;28;20027;-74
2022/10/15 13:11:17;;;;;;;0.00;0.00;;;;;;;;;;5102043;28;20102;-74
2022/10/15 13:13:44;;;;;;;3.05;2.95;;;;;;;;;;5105993;27;20120;-74
2022/10/15 13:16:12;;;;;;;0.10;0.10;;;;;;;;;;5102197;28;20470;-74
2022/10/15 13:18:39;;;;;;;0.00;0.00;;;;;;;;;;5104463;28;20032;-74
2022/10/15 13:21:06;;;;;;;2.67;1.67;;;;;;;;;;5102831;28;20027;-72
2022/10/15 13:23:33;;;;;;;0.00;0.00;;;;;;;;;;5096428;28;20035;-73
2022/10/15 13:26:18;;;;;;;0.00;0.00;;;;;;;;;;5081742;28;20074;-73
2022/10/15 13:28:45;;;;;;;0.60;0.60;;;;;;;;;;5100661;27;20046;-73
2022/10/15 13:31:31;;;;;;;0.00;0.00;;;;;;;;;;5097119;28;20016;-73
2022/10/15 13:34:08;;;;;;;0.00;0.00;;;;;;;;;;5084933;28;20030;-73
2022/10/15 13:36:34;;;;;;;0.00;0.00;;;;;;;;;;5112253;28;20024;-73
2022/10/15 13:39:04;;;;;;;0.22;0.22;;;;;;;;;;5112627;28;20526;-74
2022/10/15 13:41:39;;;;;;;0.00;0.00;;;;;;;;;;5098172;28;20044;-74
2022/10/15 13:44:05;;;;;;;0.00;0.00;;;;;;;;;;5126150;27;20019;-73
2022/10/15 13:46:33;;;;;;;0.00;0.00;;;;;;;;;;5117346;27;20438;-73
2022/10/15 13:49:01;;;;;;;0.00;0.00;;;;;;;;;;5107500;28;20028;-72
2022/10/15 13:51:34;;;;;;;0.00;0.00;;;;;;;;;;5106817;28;20432;-75
2022/10/15 13:54:02;;;;;;;0.75;0.75;;;;;;;;;;5094851;28;20089;-72
2022/10/15 13:56:30;;;;;;;0.00;0.00;;;;;;;;;;5098759;28;20462;-74
2022/10/15 13:58:57;;;;;;;0.00;0.00;;;;;;;;;;5075091;28;20036;-74
2022/10/15 14:01:24;;;;;;;5.50;2.63;;;;;;;;;;5083544;28;20024;-74
2022/10/15 14:03:55;;;;;;;0.25;0.25;;;;;;;;;;5097366;28;20067;-74
2022/10/15 14:06:22;;;;;;;0.05;0.05;;;;;;;;;;5106114;28;20024;-73
2022/10/15 14:08:50;;;;;;;0.28;0.28;;;;;;;;;;5087159;28;20059;-73
2022/10/15 14:11:17;;;;;;;0.00;0.00;;;;;;;;;;5088937;28;20062;-73
2022/10/15 14:13:54;;;;;;;0.00;0.00;;;;;;;;;;5106579;28;20031;-73
2022/10/15 14:16:22;;;;;;;0.65;0.65;;;;;;;;;;5111152;28;20092;-74
2022/10/15 14:18:50;;;;;;;0.40;0.40;;;;;;;;;;5108186;28;20078;-73
2022/10/15 14:21:18;;;;;;;0.00;0.00;;;;;;;;;;5089653;28;20020;-72
2022/10/15 14:23:46;;;;;;;0.30;0.30;;;;;;;;;;5113446;28;20500;-72
2022/10/15 14:26:13;;;;;;;0.00;0.00;;;;;;;;;;5113325;28;20028;-72
2022/10/15 14:28:39;;;;;;;0.00;0.00;;;;;;;;;;5114131;28;20043;-73
2022/10/15 14:31:07;;;;;;;0.00;0.00;;;;;;;;;;5113789;28;20028;-73
2022/10/15 14:33:36;;;;;;;0.43;0.43;;;;;;;;;;5113066;28;20084;-73
2022/10/15 14:36:23;;;;;;;0.10;0.10;;;;;;;;;;5113033;28;20046;-73
2022/10/15 14:38:50;;;;;;;0.00;0.00;;;;;;;;;;5094558;28;20114;-73
2022/10/15 14:41:33;;;;;;;0.00;0.00;;;;;;;;;;5094381;28;20385;-73
2022/10/15 14:44:00;;;;;;;0.00;0.00;;;;;;;;;;5114038;28;20026;-72
2022/10/15 14:46:34;;;;;;;0.00;0.00;;;;;;;;;;5085063;28;20035;-73
2022/10/15 14:49:01;;;;;;;0.00;0.00;;;;;;;;;;5133589;28;20414;-72
2022/10/15 14:51:28;;;;;;;0.00;0.00;;;;;;;;;;5123704;27;20020;-73
2022/10/15 14:53:55;;;;;;;0.88;0.88;;;;;;;;;;5087108;28;20028;-73
2022/10/15 14:56:23;;;;;;;0.43;0.43;;;;;;;;;;5096363;28;20031;-73
2022/10/15 14:58:52;;;;;;;0.00;0.00;;;;;;;;;;5078227;28;20111;-73